sensor_id;sensor_type;location;lat;lon;timestamp;P1;P2;P0
12542;PMS3003;6337;49.556;25.594;2023-11-21T00:00:42;24.23;15.73;
12542;PMS3003;6337;49.556;25.594;2023-11-21T00:03:10;34.33;14.43;
12542;PMS3003;6337;49.556;25.594;2023-11-21T00:05:40;24.93;14.23;
12542;PMS3003;6337;49.556;25.594;2023-11-21T00:08:07;33.93;14.47;
12542;PMS3003;6337;49.556;25.594;2023-11-21T00:10:35;23.20;15.23;
12542;PMS3003;6337;49.556;25.594;2023-11-21T00:13:06;20.17;14.17;
12542;PMS3003;6337;49.556;25.594;2023-11-21T00:15:33;21.27;13.67;
12542;PMS3003;6337;49.556;25.594;2023-11-21T00:18:01;31.53;16.43;
12542;PMS3003;6337;49.556;25.594;2023-11-21T00:20:28;37.37;19.67;
12542;PMS3003;6337;49.556;25.594;2023-11-21T00:22:55;27.57;17.70;
12542;PMS3003;6337;49.556;25.594;2023-11-21T00:25:24;26.63;17.13;
12542;PMS3003;6337;49.556;25.594;2023-11-21T00:27:54;35.87;17.30;
12542;PMS3003;6337;49.556;25.594;2023-11-21T00:30:25;25.60;15.73;
12542;PMS3003;6337;49.556;25.594;2023-11-21T00:32:54;22.47;15.30;
12542;PMS3003;6337;49.556;25.594;2023-11-21T00:35:23;24.60;14.70;
12542;PMS3003;6337;49.556;25.594;2023-11-21T00:37:52;20.80;13.87;
12542;PMS3003;6337;49.556;25.594;2023-11-21T00:40:21;17.67;13.43;
12542;PMS3003;6337;49.556;25.594;2023-11-21T00:42:49;23.10;14.63;
12542;PMS3003;6337;49.556;25.594;2023-11-21T00:45:17;25.00;14.07;
12542;PMS3003;6337;49.556;25.594;2023-11-21T00:47:45;29.57;18.20;
12542;PMS3003;6337;49.556;25.594;2023-11-21T00:50:13;32.87;17.93;
12542;PMS3003;6337;49.556;25.594;2023-11-21T00:52:40;25.67;15.27;
12542;PMS3003;6337;49.556;25.594;2023-11-21T00:55:08;21.63;13.20;
12542;PMS3003;6337;49.556;25.594;2023-11-21T00:57:37;30.60;14.13;
12542;PMS3003;6337;49.556;25.594;2023-11-21T01:00:06;35.63;16.03;
12542;PMS3003;6337;49.556;25.594;2023-11-21T01:02:38;24.93;13.30;
12542;PMS3003;6337;49.556;25.594;2023-11-21T01:05:08;21.77;11.40;
12542;PMS3003;6337;49.556;25.594;2023-11-21T01:07:35;21.30;11.77;
12542;PMS3003;6337;49.556;25.594;2023-11-21T01:10:03;15.53;10.10;
12542;PMS3003;6337;49.556;25.594;2023-11-21T01:12:32;17.47;10.73;
12542;PMS3003;6337;49.556;25.594;2023-11-21T01:15:00;12.37;9.17;
12542;PMS3003;6337;49.556;25.594;2023-11-21T01:17:27;15.90;11.63;
12542;PMS3003;6337;49.556;25.594;2023-11-21T01:19:55;20.57;11.10;
12542;PMS3003;6337;49.556;25.594;2023-11-21T01:22:27;19.53;11.87;
12542;PMS3003;6337;49.556;25.594;2023-11-21T01:24:54;23.87;12.30;
12542;PMS3003;6337;49.556;25.594;2023-11-21T01:27:21;24.00;12.20;
12542;PMS3003;6337;49.556;25.594;2023-11-21T01:29:48;27.77;13.57;
12542;PMS3003;6337;49.556;25.594;2023-11-21T01:32:18;27.37;14.37;
12542;PMS3003;6337;49.556;25.594;2023-11-21T01:34:47;42.50;21.13;
12542;PMS3003;6337;49.556;25.594;2023-11-21T01:37:14;30.70;19.20;
12542;PMS3003;6337;49.556;25.594;2023-11-21T01:39:43;26.93;17.43;
12542;PMS3003;6337;49.556;25.594;2023-11-21T01:42:12;28.80;16.93;
12542;PMS3003;6337;49.556;25.594;2023-11-21T01:44:39;24.60;15.30;
12542;PMS3003;6337;49.556;25.594;2023-11-21T01:47:07;19.33;14.43;
12542;PMS3003;6337;49.556;25.594;2023-11-21T01:49:35;18.33;12.80;
12542;PMS3003;6337;49.556;25.594;2023-11-21T01:52:03;18.13;11.37;
12542;PMS3003;6337;49.556;25.594;2023-11-21T01:54:31;17.40;11.87;
12542;PMS3003;6337;49.556;25.594;2023-11-21T01:57:00;13.10;11.00;
12542;PMS3003;6337;49.556;25.594;2023-11-21T01:59:29;19.20;11.83;
12542;PMS3003;6337;49.556;25.594;2023-11-21T02:02:01;12.17;10.60;
12542;PMS3003;6337;49.556;25.594;2023-11-21T02:04:30;15.50;11.00;
12542;PMS3003;6337;49.556;25.594;2023-11-21T02:06:57;15.03;10.40;
12542;PMS3003;6337;49.556;25.594;2023-11-21T02:09:25;18.83;10.90;
12542;PMS3003;6337;49.556;25.594;2023-11-21T02:11:54;25.00;15.23;
12542;PMS3003;6337;49.556;25.594;2023-11-21T02:14:25;21.70;15.17;
12542;PMS3003;6337;49.556;25.594;2023-11-21T02:16:53;25.20;14.00;
12542;PMS3003;6337;49.556;25.594;2023-11-21T02:19:21;19.53;14.40;
12542;PMS3003;6337;49.556;25.594;2023-11-21T02:21:50;20.57;14.77;
12542;PMS3003;6337;49.556;25.594;2023-11-21T02:24:20;20.53;14.07;
12542;PMS3003;6337;49.556;25.594;2023-11-21T02:26:48;23.90;14.80;
12542;PMS3003;6337;49.556;25.594;2023-11-21T02:29:16;19.30;14.30;
12542;PMS3003;6337;49.556;25.594;2023-11-21T02:31:47;22.93;13.90;
12542;PMS3003;6337;49.556;25.594;2023-11-21T02:34:13;23.77;15.33;
12542;PMS3003;6337;49.556;25.594;2023-11-21T02:36:41;24.70;15.40;
12542;PMS3003;6337;49.556;25.594;2023-11-21T02:39:09;26.80;14.27;
12542;PMS3003;6337;49.556;25.594;2023-11-21T02:41:38;22.17;15.47;
12542;PMS3003;6337;49.556;25.594;2023-11-21T02:44:06;31.10;17.93;
12542;PMS3003;6337;49.556;25.594;2023-11-21T02:46:34;23.43;15.87;
12542;PMS3003;6337;49.556;25.594;2023-11-21T02:49:02;28.93;17.27;
12542;PMS3003;6337;49.556;25.594;2023-11-21T02:51:31;39.23;17.83;
12542;PMS3003;6337;49.556;25.594;2023-11-21T02:53:58;28.30;17.57;
12542;PMS3003;6337;49.556;25.594;2023-11-21T02:56:28;28.80;15.60;
12542;PMS3003;6337;49.556;25.594;2023-11-21T02:58:57;37.63;17.47;
12542;PMS3003;6337;49.556;25.594;2023-11-21T03:01:25;33.13;18.73;
12542;PMS3003;6337;49.556;25.594;2023-11-21T03:03:52;41.43;20.20;
12542;PMS3003;6337;49.556;25.594;2023-11-21T03:06:20;23.77;14.70;
12542;PMS3003;6337;49.556;25.594;2023-11-21T03:08:48;29.57;15.63;
12542;PMS3003;6337;49.556;25.594;2023-11-21T03:11:16;28.50;15.00;
12542;PMS3003;6337;49.556;25.594;2023-11-21T03:13:43;23.53;14.40;
12542;PMS3003;6337;49.556;25.594;2023-11-21T03:16:12;32.73;15.83;
12542;PMS3003;6337;49.556;25.594;2023-11-21T03:18:39;28.40;15.20;
12542;PMS3003;6337;49.556;25.594;2023-11-21T03:21:07;27.27;14.00;
12542;PMS3003;6337;49.556;25.594;2023-11-21T03:23:34;26.73;13.70;
12542;PMS3003;6337;49.556;25.594;2023-11-21T03:26:02;25.03;14.90;
12542;PMS3003;6337;49.556;25.594;2023-11-21T03:28:29;36.77;16.83;
12542;PMS3003;6337;49.556;25.594;2023-11-21T03:30:57;47.00;17.50;
12542;PMS3003;6337;49.556;25.594;2023-11-21T03:33:26;37.00;17.93;
12542;PMS3003;6337;49.556;25.594;2023-11-21T03:35:53;45.23;22.00;
12542;PMS3003;6337;49.556;25.594;2023-11-21T03:38:20;38.00;19.60;
12542;PMS3003;6337;49.556;25.594;2023-11-21T03:40:47;51.67;20.03;
12542;PMS3003;6337;49.556;25.594;2023-11-21T03:43:16;40.60;19.57;
12542;PMS3003;6337;49.556;25.594;2023-11-21T03:45:44;38.13;18.17;
12542;PMS3003;6337;49.556;25.594;2023-11-21T03:48:11;46.83;17.30;
12542;PMS3003;6337;49.556;25.594;2023-11-21T03:50:41;37.00;16.70;
12542;PMS3003;6337;49.556;25.594;2023-11-21T03:53:08;35.33;15.87;
12542;PMS3003;6337;49.556;25.594;2023-11-21T03:55:35;30.37;14.70;
12542;PMS3003;6337;49.556;25.594;2023-11-21T03:58:03;29.23;16.00;
12542;PMS3003;6337;49.556;25.594;2023-11-21T04:00:30;40.70;15.57;
12542;PMS3003;6337;49.556;25.594;2023-11-21T04:02:57;32.53;16.10;
12542;PMS3003;6337;49.556;25.594;2023-11-21T04:05:25;39.13;15.50;
12542;PMS3003;6337;49.556;25.594;2023-11-21T04:07:54;42.70;15.53;
12542;PMS3003;6337;49.556;25.594;2023-11-21T04:10:21;32.80;15.40;
12542;PMS3003;6337;49.556;25.594;2023-11-21T04:12:48;39.47;15.67;
12542;PMS3003;6337;49.556;25.594;2023-11-21T04:15:16;39.43;18.70;
12542;PMS3003;6337;49.556;25.594;2023-11-21T04:17:45;36.73;16.53;
12542;PMS3003;6337;49.556;25.594;2023-11-21T04:20:12;29.73;15.90;
12542;PMS3003;6337;49.556;25.594;2023-11-21T04:22:40;33.30;16.73;
12542;PMS3003;6337;49.556;25.594;2023-11-21T04:25:14;33.03;17.07;
12542;PMS3003;6337;49.556;25.594;2023-11-21T04:27:42;39.03;20.30;
12542;PMS3003;6337;49.556;25.594;2023-11-21T04:30:11;40.23;21.43;
12542;PMS3003;6337;49.556;25.594;2023-11-21T04:32:40;42.63;22.10;
12542;PMS3003;6337;49.556;25.594;2023-11-21T04:35:07;54.00;22.80;
12542;PMS3003;6337;49.556;25.594;2023-11-21T04:37:35;46.67;20.07;
12542;PMS3003;6337;49.556;25.594;2023-11-21T04:40:03;49.30;21.90;
12542;PMS3003;6337;49.556;25.594;2023-11-21T04:42:34;50.93;20.10;
12542;PMS3003;6337;49.556;25.594;2023-11-21T04:45:02;38.90;19.90;
12542;PMS3003;6337;49.556;25.594;2023-11-21T04:47:33;50.57;20.87;
12542;PMS3003;6337;49.556;25.594;2023-11-21T04:50:01;40.60;17.50;
12542;PMS3003;6337;49.556;25.594;2023-11-21T04:52:30;29.00;15.10;
12542;PMS3003;6337;49.556;25.594;2023-11-21T04:54:58;41.00;20.83;
12542;PMS3003;6337;49.556;25.594;2023-11-21T04:57:26;52.90;21.33;
12542;PMS3003;6337;49.556;25.594;2023-11-21T04:59:55;87.20;24.37;
12542;PMS3003;6337;49.556;25.594;2023-11-21T05:02:22;46.33;20.73;
12542;PMS3003;6337;49.556;25.594;2023-11-21T05:04:49;54.30;23.03;
12542;PMS3003;6337;49.556;25.594;2023-11-21T05:07:18;56.70;23.67;
12542;PMS3003;6337;49.556;25.594;2023-11-21T05:09:46;44.70;19.83;
12542;PMS3003;6337;49.556;25.594;2023-11-21T05:12:13;46.93;20.83;
12542;PMS3003;6337;49.556;25.594;2023-11-21T05:14:40;33.90;20.63;
12542;PMS3003;6337;49.556;25.594;2023-11-21T05:17:10;40.30;20.47;
12542;PMS3003;6337;49.556;25.594;2023-11-21T05:19:37;52.90;25.37;
12542;PMS3003;6337;49.556;25.594;2023-11-21T05:22:05;47.83;21.67;
12542;PMS3003;6337;49.556;25.594;2023-11-21T05:24:33;50.70;21.90;
12542;PMS3003;6337;49.556;25.594;2023-11-21T05:27:01;60.37;28.63;
12542;PMS3003;6337;49.556;25.594;2023-11-21T05:29:28;63.27;26.60;
12542;PMS3003;6337;49.556;25.594;2023-11-21T05:31:56;58.87;29.30;
12542;PMS3003;6337;49.556;25.594;2023-11-21T05:34:24;61.27;27.70;
12542;PMS3003;6337;49.556;25.594;2023-11-21T05:36:51;73.43;36.33;
12542;PMS3003;6337;49.556;25.594;2023-11-21T05:39:19;78.27;34.77;
12542;PMS3003;6337;49.556;25.594;2023-11-21T05:41:47;61.63;29.07;
12542;PMS3003;6337;49.556;25.594;2023-11-21T05:44:14;69.40;29.30;
12542;PMS3003;6337;49.556;25.594;2023-11-21T05:46:41;55.13;28.00;
12542;PMS3003;6337;49.556;25.594;2023-11-21T05:49:09;48.93;24.97;
12542;PMS3003;6337;49.556;25.594;2023-11-21T05:51:38;69.43;32.57;
12542;PMS3003;6337;49.556;25.594;2023-11-21T05:54:06;65.77;32.23;
12542;PMS3003;6337;49.556;25.594;2023-11-21T05:56:34;76.40;42.67;
12542;PMS3003;6337;49.556;25.594;2023-11-21T05:59:02;58.33;28.80;
12542;PMS3003;6337;49.556;25.594;2023-11-21T06:01:31;57.17;27.97;
12542;PMS3003;6337;49.556;25.594;2023-11-21T06:03:59;57.90;29.30;
12542;PMS3003;6337;49.556;25.594;2023-11-21T06:06:28;49.83;27.00;
12542;PMS3003;6337;49.556;25.594;2023-11-21T06:08:59;68.60;36.10;
12542;PMS3003;6337;49.556;25.594;2023-11-21T06:11:28;63.03;34.33;
12542;PMS3003;6337;49.556;25.594;2023-11-21T06:13:55;79.03;38.77;
12542;PMS3003;6337;49.556;25.594;2023-11-21T06:16:24;60.53;34.57;
12542;PMS3003;6337;49.556;25.594;2023-11-21T06:18:53;75.23;37.93;
12542;PMS3003;6337;49.556;25.594;2023-11-21T06:21:20;72.33;36.87;
12542;PMS3003;6337;49.556;25.594;2023-11-21T06:23:47;91.20;43.13;
12542;PMS3003;6337;49.556;25.594;2023-11-21T06:26:16;115.77;49.87;
12542;PMS3003;6337;49.556;25.594;2023-11-21T06:28:44;96.17;50.10;
12542;PMS3003;6337;49.556;25.594;2023-11-21T06:31:11;88.70;46.57;
12542;PMS3003;6337;49.556;25.594;2023-11-21T06:33:40;105.07;48.30;
12542;PMS3003;6337;49.556;25.594;2023-11-21T06:36:09;89.97;46.40;
12542;PMS3003;6337;49.556;25.594;2023-11-21T06:38:38;105.53;52.13;
12542;PMS3003;6337;49.556;25.594;2023-11-21T06:41:05;104.93;51.63;
12542;PMS3003;6337;49.556;25.594;2023-11-21T06:43:35;97.27;46.70;
12542;PMS3003;6337;49.556;25.594;2023-11-21T06:46:02;116.67;51.40;
12542;PMS3003;6337;49.556;25.594;2023-11-21T06:48:29;87.50;44.83;
12542;PMS3003;6337;49.556;25.594;2023-11-21T06:50:57;133.23;60.23;
12542;PMS3003;6337;49.556;25.594;2023-11-21T06:53:25;103.60;51.00;
12542;PMS3003;6337;49.556;25.594;2023-11-21T06:55:52;79.47;41.53;
12542;PMS3003;6337;49.556;25.594;2023-11-21T06:58:21;63.17;36.50;
12542;PMS3003;6337;49.556;25.594;2023-11-21T07:00:50;69.33;37.10;
12542;PMS3003;6337;49.556;25.594;2023-11-21T07:03:17;76.63;37.00;
12542;PMS3003;6337;49.556;25.594;2023-11-21T07:05:46;69.70;32.80;
12542;PMS3003;6337;49.556;25.594;2023-11-21T07:08:14;77.20;35.70;
12542;PMS3003;6337;49.556;25.594;2023-11-21T07:10:41;75.23;37.47;
12542;PMS3003;6337;49.556;25.594;2023-11-21T07:13:08;79.23;37.17;
12542;PMS3003;6337;49.556;25.594;2023-11-21T07:15:37;71.13;35.67;
12542;PMS3003;6337;49.556;25.594;2023-11-21T07:18:06;94.80;38.77;
12542;PMS3003;6337;49.556;25.594;2023-11-21T07:20:38;86.23;40.90;
12542;PMS3003;6337;49.556;25.594;2023-11-21T07:23:05;85.60;40.97;
12542;PMS3003;6337;49.556;25.594;2023-11-21T07:25:32;75.87;41.07;
12542;PMS3003;6337;49.556;25.594;2023-11-21T07:27:59;88.13;41.90;
12542;PMS3003;6337;49.556;25.594;2023-11-21T07:30:28;71.40;39.20;
12542;PMS3003;6337;49.556;25.594;2023-11-21T07:32:56;76.90;39.10;
12542;PMS3003;6337;49.556;25.594;2023-11-21T07:35:24;81.57;37.80;
12542;PMS3003;6337;49.556;25.594;2023-11-21T07:37:52;78.47;37.07;
12542;PMS3003;6337;49.556;25.594;2023-11-21T07:40:19;74.23;39.80;
12542;PMS3003;6337;49.556;25.594;2023-11-21T07:42:47;72.23;32.57;
12542;PMS3003;6337;49.556;25.594;2023-11-21T07:45:20;85.83;36.27;
12542;PMS3003;6337;49.556;25.594;2023-11-21T07:47:47;92.93;42.80;
12542;PMS3003;6337;49.556;25.594;2023-11-21T07:50:15;62.20;33.77;
12542;PMS3003;6337;49.556;25.594;2023-11-21T07:52:47;105.07;51.77;
12542;PMS3003;6337;49.556;25.594;2023-11-21T07:55:15;92.27;50.80;
12542;PMS3003;6337;49.556;25.594;2023-11-21T07:57:43;73.43;32.23;
12542;PMS3003;6337;49.556;25.594;2023-11-21T08:00:11;71.33;35.23;
12542;PMS3003;6337;49.556;25.594;2023-11-21T08:02:40;59.43;27.33;
12542;PMS3003;6337;49.556;25.594;2023-11-21T08:05:07;61.20;32.37;
12542;PMS3003;6337;49.556;25.594;2023-11-21T08:07:37;72.40;30.33;
12542;PMS3003;6337;49.556;25.594;2023-11-21T08:10:11;65.93;31.63;
12542;PMS3003;6337;49.556;25.594;2023-11-21T08:12:39;77.43;33.37;
12542;PMS3003;6337;49.556;25.594;2023-11-21T08:15:08;74.83;34.37;
12542;PMS3003;6337;49.556;25.594;2023-11-21T08:17:36;71.47;33.90;
12542;PMS3003;6337;49.556;25.594;2023-11-21T08:20:04;88.00;45.87;
12542;PMS3003;6337;49.556;25.594;2023-11-21T08:22:33;98.90;45.47;
12542;PMS3003;6337;49.556;25.594;2023-11-21T08:25:01;97.60;41.97;
12542;PMS3003;6337;49.556;25.594;2023-11-21T08:27:35;119.40;55.20;
12542;PMS3003;6337;49.556;25.594;2023-11-21T08:30:04;83.87;40.30;
12542;PMS3003;6337;49.556;25.594;2023-11-21T08:32:37;80.87;41.83;
12542;PMS3003;6337;49.556;25.594;2023-11-21T08:35:07;92.27;41.07;
12542;PMS3003;6337;49.556;25.594;2023-11-21T08:37:35;88.87;42.73;
12542;PMS3003;6337;49.556;25.594;2023-11-21T08:40:04;75.00;36.23;
12542;PMS3003;6337;49.556;25.594;2023-11-21T08:42:36;64.03;32.60;
12542;PMS3003;6337;49.556;25.594;2023-11-21T08:45:03;64.97;31.23;
12542;PMS3003;6337;49.556;25.594;2023-11-21T08:47:34;58.97;29.80;
12542;PMS3003;6337;49.556;25.594;2023-11-21T08:50:01;59.77;29.70;
12542;PMS3003;6337;49.556;25.594;2023-11-21T08:52:31;65.23;35.40;
12542;PMS3003;6337;49.556;25.594;2023-11-21T08:54:58;48.17;26.10;
12542;PMS3003;6337;49.556;25.594;2023-11-21T08:57:32;87.00;33.80;
12542;PMS3003;6337;49.556;25.594;2023-11-21T09:00:05;60.77;33.07;
12542;PMS3003;6337;49.556;25.594;2023-11-21T09:02:36;45.53;27.67;
12542;PMS3003;6337;49.556;25.594;2023-11-21T09:05:04;58.17;31.20;
12542;PMS3003;6337;49.556;25.594;2023-11-21T09:07:32;67.77;34.73;
12542;PMS3003;6337;49.556;25.594;2023-11-21T09:09:59;60.43;32.33;
12542;PMS3003;6337;49.556;25.594;2023-11-21T09:12:26;62.93;31.97;
12542;PMS3003;6337;49.556;25.594;2023-11-21T09:14:54;64.60;32.53;
12542;PMS3003;6337;49.556;25.594;2023-11-21T09:17:23;57.17;28.73;
12542;PMS3003;6337;49.556;25.594;2023-11-21T09:19:50;62.63;29.17;
12542;PMS3003;6337;49.556;25.594;2023-11-21T09:22:18;63.37;33.30;
12542;PMS3003;6337;49.556;25.594;2023-11-21T09:24:46;66.20;34.00;
12542;PMS3003;6337;49.556;25.594;2023-11-21T09:27:13;75.03;36.97;
12542;PMS3003;6337;49.556;25.594;2023-11-21T09:29:42;66.93;31.70;
12542;PMS3003;6337;49.556;25.594;2023-11-21T09:32:09;57.17;29.70;
12542;PMS3003;6337;49.556;25.594;2023-11-21T09:34:41;73.17;34.30;
12542;PMS3003;6337;49.556;25.594;2023-11-21T09:37:08;72.70;30.20;
12542;PMS3003;6337;49.556;25.594;2023-11-21T09:39:36;67.20;34.10;
12542;PMS3003;6337;49.556;25.594;2023-11-21T09:42:08;59.67;29.93;
12542;PMS3003;6337;49.556;25.594;2023-11-21T09:44:43;62.57;30.50;
12542;PMS3003;6337;49.556;25.594;2023-11-21T09:47:14;50.53;30.03;
12542;PMS3003;6337;49.556;25.594;2023-11-21T09:49:44;71.83;36.50;
12542;PMS3003;6337;49.556;25.594;2023-11-21T09:52:16;55.30;30.73;
12542;PMS3003;6337;49.556;25.594;2023-11-21T09:54:50;45.40;23.90;
12542;PMS3003;6337;49.556;25.594;2023-11-21T09:57:18;55.67;27.70;
12542;PMS3003;6337;49.556;25.594;2023-11-21T09:59:46;50.27;24.33;
12542;PMS3003;6337;49.556;25.594;2023-11-21T10:02:15;55.30;29.17;
12542;PMS3003;6337;49.556;25.594;2023-11-21T10:04:45;52.57;25.57;
12542;PMS3003;6337;49.556;25.594;2023-11-21T10:07:13;41.10;24.23;
12542;PMS3003;6337;49.556;25.594;2023-11-21T10:09:44;48.77;26.63;
12542;PMS3003;6337;49.556;25.594;2023-11-21T10:12:13;50.87;28.30;
12542;PMS3003;6337;49.556;25.594;2023-11-21T10:14:42;52.60;29.20;
12542;PMS3003;6337;49.556;25.594;2023-11-21T10:17:10;49.43;28.70;
12542;PMS3003;6337;49.556;25.594;2023-11-21T10:19:41;49.57;29.00;
12542;PMS3003;6337;49.556;25.594;2023-11-21T10:22:11;55.73;27.77;
12542;PMS3003;6337;49.556;25.594;2023-11-21T10:24:40;72.83;31.60;
12542;PMS3003;6337;49.556;25.594;2023-11-21T10:27:08;55.50;27.77;
12542;PMS3003;6337;49.556;25.594;2023-11-21T10:29:36;49.00;27.30;
12542;PMS3003;6337;49.556;25.594;2023-11-21T10:32:05;53.60;28.17;
12542;PMS3003;6337;49.556;25.594;2023-11-21T10:34:33;51.43;25.83;
12542;PMS3003;6337;49.556;25.594;2023-11-21T10:37:02;59.03;31.20;
12542;PMS3003;6337;49.556;25.594;2023-11-21T10:39:42;55.70;26.97;
12542;PMS3003;6337;49.556;25.594;2023-11-21T10:42:10;66.17;38.40;
12542;PMS3003;6337;49.556;25.594;2023-11-21T10:44:40;52.53;28.60;
12542;PMS3003;6337;49.556;25.594;2023-11-21T10:47:09;60.23;34.33;
12542;PMS3003;6337;49.556;25.594;2023-11-21T10:49:37;69.00;34.33;
12542;PMS3003;6337;49.556;25.594;2023-11-21T10:52:05;51.63;26.90;
12542;PMS3003;6337;49.556;25.594;2023-11-21T10:54:34;51.93;26.37;
12542;PMS3003;6337;49.556;25.594;2023-11-21T10:57:02;44.93;25.63;
12542;PMS3003;6337;49.556;25.594;2023-11-21T10:59:32;43.83;25.00;
12542;PMS3003;6337;49.556;25.594;2023-11-21T11:02:04;50.93;28.30;
12542;PMS3003;6337;49.556;25.594;2023-11-21T11:04:38;46.70;25.60;
12542;PMS3003;6337;49.556;25.594;2023-11-21T11:07:07;48.37;26.57;
12542;PMS3003;6337;49.556;25.594;2023-11-21T11:09:39;54.80;31.07;
12542;PMS3003;6337;49.556;25.594;2023-11-21T11:12:06;53.30;31.87;
12542;PMS3003;6337;49.556;25.594;2023-11-21T11:14:36;49.37;32.20;
12542;PMS3003;6337;49.556;25.594;2023-11-21T11:17:03;53.17;29.87;
12542;PMS3003;6337;49.556;25.594;2023-11-21T11:19:31;57.97;32.17;
12542;PMS3003;6337;49.556;25.594;2023-11-21T11:22:00;55.63;29.03;
12542;PMS3003;6337;49.556;25.594;2023-11-21T11:27:24;146.37;63.57;
12542;PMS3003;6337;49.556;25.594;2023-11-21T11:30:00;94.23;44.43;
12542;PMS3003;6337;49.556;25.594;2023-11-21T11:32:35;75.23;36.97;
12542;PMS3003;6337;49.556;25.594;2023-11-21T11:35:10;73.93;36.00;
12542;PMS3003;6337;49.556;25.594;2023-11-21T11:37:41;69.13;34.67;
12542;PMS3003;6337;49.556;25.594;2023-11-21T11:40:12;71.50;33.57;
12542;PMS3003;6337;49.556;25.594;2023-11-21T11:42:54;63.97;35.13;
12542;PMS3003;6337;49.556;25.594;2023-11-21T11:45:24;62.17;33.47;
12542;PMS3003;6337;49.556;25.594;2023-11-21T11:47:59;60.03;31.50;
12542;PMS3003;6337;49.556;25.594;2023-11-21T11:50:26;75.33;35.40;
12542;PMS3003;6337;49.556;25.594;2023-11-21T11:52:54;62.90;33.77;
12542;PMS3003;6337;49.556;25.594;2023-11-21T11:55:24;70.73;32.30;
12542;PMS3003;6337;49.556;25.594;2023-11-21T11:57:55;61.03;32.33;
12542;PMS3003;6337;49.556;25.594;2023-11-21T12:00:33;49.30;27.17;
12542;PMS3003;6337;49.556;25.594;2023-11-21T12:03:03;79.67;37.47;
12542;PMS3003;6337;49.556;25.594;2023-11-21T12:05:32;82.30;34.23;
12542;PMS3003;6337;49.556;25.594;2023-11-21T12:08:02;70.03;32.17;
12542;PMS3003;6337;49.556;25.594;2023-11-21T12:10:32;61.47;29.27;
12542;PMS3003;6337;49.556;25.594;2023-11-21T12:13:01;57.17;29.47;
12542;PMS3003;6337;49.556;25.594;2023-11-21T12:15:30;53.77;28.60;
12542;PMS3003;6337;49.556;25.594;2023-11-21T12:17:58;50.97;27.70;
12542;PMS3003;6337;49.556;25.594;2023-11-21T12:20:26;49.93;26.97;
12542;PMS3003;6337;49.556;25.594;2023-11-21T12:22:54;61.70;28.93;
12542;PMS3003;6337;49.556;25.594;2023-11-21T12:25:25;56.37;29.77;
12542;PMS3003;6337;49.556;25.594;2023-11-21T12:27:57;61.43;30.27;
12542;PMS3003;6337;49.556;25.594;2023-11-21T12:30:25;55.60;29.53;
12542;PMS3003;6337;49.556;25.594;2023-11-21T12:32:56;58.07;31.07;
12542;PMS3003;6337;49.556;25.594;2023-11-21T12:35:25;55.40;31.10;
12542;PMS3003;6337;49.556;25.594;2023-11-21T12:37:59;62.20;29.60;
12542;PMS3003;6337;49.556;25.594;2023-11-21T12:40:27;47.20;24.80;
12542;PMS3003;6337;49.556;25.594;2023-11-21T12:42:57;45.63;24.13;
12542;PMS3003;6337;49.556;25.594;2023-11-21T12:45:26;51.37;26.97;
12542;PMS3003;6337;49.556;25.594;2023-11-21T12:47:56;43.00;25.57;
12542;PMS3003;6337;49.556;25.594;2023-11-21T12:50:33;44.10;24.20;
12542;PMS3003;6337;49.556;25.594;2023-11-21T12:53:02;42.03;26.43;
12542;PMS3003;6337;49.556;25.594;2023-11-21T12:55:31;46.70;25.50;
12542;PMS3003;6337;49.556;25.594;2023-11-21T12:58:06;53.90;27.83;
12542;PMS3003;6337;49.556;25.594;2023-11-21T13:00:37;50.63;28.20;
12542;PMS3003;6337;49.556;25.594;2023-11-21T13:03:07;48.70;28.13;
12542;PMS3003;6337;49.556;25.594;2023-11-21T13:05:38;45.47;26.30;
12542;PMS3003;6337;49.556;25.594;2023-11-21T13:08:09;40.30;24.43;
12542;PMS3003;6337;49.556;25.594;2023-11-21T13:10:46;46.73;28.10;
12542;PMS3003;6337;49.556;25.594;2023-11-21T13:13:17;57.63;30.00;
12542;PMS3003;6337;49.556;25.594;2023-11-21T13:15:47;42.77;26.10;
12542;PMS3003;6337;49.556;25.594;2023-11-21T13:18:15;46.90;29.17;
12542;PMS3003;6337;49.556;25.594;2023-11-21T13:20:42;53.80;28.67;
12542;PMS3003;6337;49.556;25.594;2023-11-21T13:23:11;53.03;27.80;
12542;PMS3003;6337;49.556;25.594;2023-11-21T13:25:39;53.87;25.60;
12542;PMS3003;6337;49.556;25.594;2023-11-21T13:28:06;52.57;31.07;
12542;PMS3003;6337;49.556;25.594;2023-11-21T13:30:36;47.83;28.30;
12542;PMS3003;6337;49.556;25.594;2023-11-21T13:33:05;50.63;27.87;
12542;PMS3003;6337;49.556;25.594;2023-11-21T13:35:35;45.93;27.13;
12542;PMS3003;6337;49.556;25.594;2023-11-21T13:38:07;49.97;26.73;
12542;PMS3003;6337;49.556;25.594;2023-11-21T13:40:38;55.27;28.40;
12542;PMS3003;6337;49.556;25.594;2023-11-21T13:43:08;51.53;27.97;
12542;PMS3003;6337;49.556;25.594;2023-11-21T13:45:37;66.30;35.40;
12542;PMS3003;6337;49.556;25.594;2023-11-21T13:48:05;64.87;33.13;
12542;PMS3003;6337;49.556;25.594;2023-11-21T13:50:35;61.77;33.00;
12542;PMS3003;6337;49.556;25.594;2023-11-21T13:53:04;56.60;31.70;
12542;PMS3003;6337;49.556;25.594;2023-11-21T13:55:41;61.40;31.17;
12542;PMS3003;6337;49.556;25.594;2023-11-21T13:58:08;65.37;29.63;
12542;PMS3003;6337;49.556;25.594;2023-11-21T14:00:43;55.33;29.37;
12542;PMS3003;6337;49.556;25.594;2023-11-21T14:03:11;51.67;26.67;
12542;PMS3003;6337;49.556;25.594;2023-11-21T14:05:57;60.40;27.80;
12542;PMS3003;6337;49.556;25.594;2023-11-21T14:08:26;41.67;24.10;
12542;PMS3003;6337;49.556;25.594;2023-11-21T14:10:54;43.70;23.73;
12542;PMS3003;6337;49.556;25.594;2023-11-21T14:13:22;38.57;23.83;
12542;PMS3003;6337;49.556;25.594;2023-11-21T14:15:51;48.03;21.50;
12542;PMS3003;6337;49.556;25.594;2023-11-21T14:18:22;39.03;21.33;
12542;PMS3003;6337;49.556;25.594;2023-11-21T14:20:55;33.83;20.83;
12542;PMS3003;6337;49.556;25.594;2023-11-21T14:23:22;37.80;21.50;
12542;PMS3003;6337;49.556;25.594;2023-11-21T14:25:50;28.40;16.13;
12542;PMS3003;6337;49.556;25.594;2023-11-21T14:28:18;37.60;19.00;
12542;PMS3003;6337;49.556;25.594;2023-11-21T14:30:45;30.23;17.80;
12542;PMS3003;6337;49.556;25.594;2023-11-21T14:33:14;30.63;22.07;
12542;PMS3003;6337;49.556;25.594;2023-11-21T14:35:42;25.77;18.23;
12542;PMS3003;6337;49.556;25.594;2023-11-21T14:38:09;30.47;19.93;
12542;PMS3003;6337;49.556;25.594;2023-11-21T14:40:39;25.10;16.43;
12542;PMS3003;6337;49.556;25.594;2023-11-21T14:43:06;34.27;19.67;
12542;PMS3003;6337;49.556;25.594;2023-11-21T14:45:33;28.03;18.00;
12542;PMS3003;6337;49.556;25.594;2023-11-21T14:48:01;34.27;20.00;
12542;PMS3003;6337;49.556;25.594;2023-11-21T14:50:42;38.73;24.67;
12542;PMS3003;6337;49.556;25.594;2023-11-21T14:53:34;41.63;25.20;
12542;PMS3003;6337;49.556;25.594;2023-11-21T14:56:09;49.50;28.00;
12542;PMS3003;6337;49.556;25.594;2023-11-21T14:58:46;55.47;26.80;
12542;PMS3003;6337;49.556;25.594;2023-11-21T15:01:12;51.10;27.70;